sensor_id;sensor_type;location;lat;lon;timestamp;P1;durP1;ratioP1;P2;durP2;ratioP2
16673;SDS011;8450;52.654;10.326;2024-02-21T00:01:41;26.47;;;13.60;;
16673;SDS011;8450;52.654;10.326;2024-02-21T00:04:07;29.57;;;14.40;;
16673;SDS011;8450;52.654;10.326;2024-02-21T00:06:32;25.67;;;13.47;;
16673;SDS011;8450;52.654;10.326;2024-02-21T00:08:58;29.90;;;14.40;;
16673;SDS011;8450;52.654;10.326;2024-02-21T00:11:24;27.87;;;14.43;;
16673;SDS011;8450;52.654;10.326;2024-02-21T00:13:49;26.50;;;13.50;;
16673;SDS011;8450;52.654;10.326;2024-02-21T00:16:18;28.23;;;13.83;;
16673;SDS011;8450;52.654;10.326;2024-02-21T00:18:44;32.27;;;15.73;;
16673;SDS011;8450;52.654;10.326;2024-02-21T00:21:10;21.57;;;14.10;;
16673;SDS011;8450;52.654;10.326;2024-02-21T00:23:42;28.97;;;14.53;;
16673;SDS011;8450;52.654;10.326;2024-02-21T00:26:14;27.47;;;14.77;;
16673;SDS011;8450;52.654;10.326;2024-02-21T00:28:39;28.23;;;15.73;;
16673;SDS011;8450;52.654;10.326;2024-02-21T00:31:05;30.00;;;17.10;;
16673;SDS011;8450;52.654;10.326;2024-02-21T00:33:30;38.73;;;18.93;;
16673;SDS011;8450;52.654;10.326;2024-02-21T00:35:56;32.90;;;17.27;;
16673;SDS011;8450;52.654;10.326;2024-02-21T00:38:21;26.07;;;12.50;;
16673;SDS011;8450;52.654;10.326;2024-02-21T00:40:47;31.83;;;16.80;;
16673;SDS011;8450;52.654;10.326;2024-02-21T00:43:12;28.13;;;15.93;;
16673;SDS011;8450;52.654;10.326;2024-02-21T00:45:38;27.90;;;17.33;;
16673;SDS011;8450;52.654;10.326;2024-02-21T00:48:04;39.77;;;17.57;;
16673;SDS011;8450;52.654;10.326;2024-02-21T00:50:30;35.37;;;18.93;;
16673;SDS011;8450;52.654;10.326;2024-02-21T00:52:55;29.70;;;18.37;;
16673;SDS011;8450;52.654;10.326;2024-02-21T00:55:21;31.17;;;19.17;;
16673;SDS011;8450;52.654;10.326;2024-02-21T00:57:47;33.27;;;18.77;;
16673;SDS011;8450;52.654;10.326;2024-02-21T01:00:12;28.90;;;16.73;;
16673;SDS011;8450;52.654;10.326;2024-02-21T01:02:38;34.80;;;19.13;;
16673;SDS011;8450;52.654;10.326;2024-02-21T01:05:04;40.07;;;19.37;;
16673;SDS011;8450;52.654;10.326;2024-02-21T01:07:30;26.70;;;14.37;;
16673;SDS011;8450;52.654;10.326;2024-02-21T01:09:55;25.30;;;16.60;;
16673;SDS011;8450;52.654;10.326;2024-02-21T01:12:21;36.00;;;20.27;;
16673;SDS011;8450;52.654;10.326;2024-02-21T01:14:46;32.90;;;17.90;;
16673;SDS011;8450;52.654;10.326;2024-02-21T01:17:12;36.03;;;20.47;;
16673;SDS011;8450;52.654;10.326;2024-02-21T01:19:38;35.73;;;19.83;;
16673;SDS011;8450;52.654;10.326;2024-02-21T01:22:03;34.17;;;18.80;;
16673;SDS011;8450;52.654;10.326;2024-02-21T01:24:29;30.90;;;20.53;;
16673;SDS011;8450;52.654;10.326;2024-02-21T01:26:55;35.40;;;20.03;;
16673;SDS011;8450;52.654;10.326;2024-02-21T01:29:20;44.70;;;19.63;;
16673;SDS011;8450;52.654;10.326;2024-02-21T01:31:46;36.00;;;17.60;;
16673;SDS011;8450;52.654;10.326;2024-02-21T01:34:12;42.07;;;20.90;;
16673;SDS011;8450;52.654;10.326;2024-02-21T01:36:38;40.20;;;21.20;;
16673;SDS011;8450;52.654;10.326;2024-02-21T01:39:03;32.07;;;18.93;;
16673;SDS011;8450;52.654;10.326;2024-02-21T01:41:29;24.37;;;12.70;;
16673;SDS011;8450;52.654;10.326;2024-02-21T01:43:56;37.23;;;22.20;;
16673;SDS011;8450;52.654;10.326;2024-02-21T01:46:22;36.10;;;20.37;;
16673;SDS011;8450;52.654;10.326;2024-02-21T01:48:48;41.37;;;19.83;;
16673;SDS011;8450;52.654;10.326;2024-02-21T01:51:14;35.53;;;21.67;;
16673;SDS011;8450;52.654;10.326;2024-02-21T01:53:42;40.23;;;20.63;;
16673;SDS011;8450;52.654;10.326;2024-02-21T01:56:09;34.60;;;19.33;;
16673;SDS011;8450;52.654;10.326;2024-02-21T01:58:36;29.63;;;15.93;;
16673;SDS011;8450;52.654;10.326;2024-02-21T02:01:02;33.97;;;19.40;;
16673;SDS011;8450;52.654;10.326;2024-02-21T02:03:28;33.47;;;19.53;;
16673;SDS011;8450;52.654;10.326;2024-02-21T02:05:55;36.37;;;21.57;;
16673;SDS011;8450;52.654;10.326;2024-02-21T02:08:20;38.23;;;22.53;;
16673;SDS011;8450;52.654;10.326;2024-02-21T02:10:47;37.17;;;20.67;;
16673;SDS011;8450;52.654;10.326;2024-02-21T02:13:13;39.73;;;21.30;;
16673;SDS011;8450;52.654;10.326;2024-02-21T02:15:40;38.23;;;20.07;;
16673;SDS011;8450;52.654;10.326;2024-02-21T02:18:07;38.87;;;22.20;;
16673;SDS011;8450;52.654;10.326;2024-02-21T02:20:33;27.83;;;17.67;;
16673;SDS011;8450;52.654;10.326;2024-02-21T02:22:59;33.63;;;20.13;;
16673;SDS011;8450;52.654;10.326;2024-02-21T02:25:26;37.53;;;18.90;;
16673;SDS011;8450;52.654;10.326;2024-02-21T02:27:51;36.47;;;21.80;;
16673;SDS011;8450;52.654;10.326;2024-02-21T02:30:17;38.67;;;19.73;;
16673;SDS011;8450;52.654;10.326;2024-02-21T02:32:46;38.73;;;21.60;;
16673;SDS011;8450;52.654;10.326;2024-02-21T02:35:11;35.53;;;21.37;;
16673;SDS011;8450;52.654;10.326;2024-02-21T02:37:37;39.87;;;22.10;;
16673;SDS011;8450;52.654;10.326;2024-02-21T02:40:06;41.27;;;21.00;;
16673;SDS011;8450;52.654;10.326;2024-02-21T02:42:32;34.93;;;21.77;;
16673;SDS011;8450;52.654;10.326;2024-02-21T02:44:58;35.77;;;19.70;;
16673;SDS011;8450;52.654;10.326;2024-02-21T02:47:23;34.20;;;20.50;;
16673;SDS011;8450;52.654;10.326;2024-02-21T02:49:49;35.73;;;20.33;;
16673;SDS011;8450;52.654;10.326;2024-02-21T02:52:16;37.90;;;22.47;;
16673;SDS011;8450;52.654;10.326;2024-02-21T02:54:42;28.80;;;20.30;;
16673;SDS011;8450;52.654;10.326;2024-02-21T02:57:08;30.33;;;19.63;;
16673;SDS011;8450;52.654;10.326;2024-02-21T02:59:34;35.27;;;21.07;;
16673;SDS011;8450;52.654;10.326;2024-02-21T03:02:00;37.73;;;20.03;;
16673;SDS011;8450;52.654;10.326;2024-02-21T03:04:26;37.23;;;22.70;;
16673;SDS011;8450;52.654;10.326;2024-02-21T03:06:51;37.97;;;20.40;;
16673;SDS011;8450;52.654;10.326;2024-02-21T03:09:17;35.53;;;19.60;;
16673;SDS011;8450;52.654;10.326;2024-02-21T03:11:42;38.00;;;23.03;;
16673;SDS011;8450;52.654;10.326;2024-02-21T03:14:09;38.77;;;20.03;;
16673;SDS011;8450;52.654;10.326;2024-02-21T03:16:35;37.60;;;20.43;;
16673;SDS011;8450;52.654;10.326;2024-02-21T03:19:00;32.27;;;20.63;;
16673;SDS011;8450;52.654;10.326;2024-02-21T03:21:26;33.90;;;19.27;;
16673;SDS011;8450;52.654;10.326;2024-02-21T03:23:51;27.40;;;16.47;;
16673;SDS011;8450;52.654;10.326;2024-02-21T03:26:17;34.77;;;18.90;;
16673;SDS011;8450;52.654;10.326;2024-02-21T03:28:43;37.33;;;18.03;;
16673;SDS011;8450;52.654;10.326;2024-02-21T03:31:11;21.37;;;11.93;;
16673;SDS011;8450;52.654;10.326;2024-02-21T03:33:38;23.93;;;13.97;;
16673;SDS011;8450;52.654;10.326;2024-02-21T03:36:12;32.27;;;19.80;;
16673;SDS011;8450;52.654;10.326;2024-02-21T03:38:39;38.27;;;19.57;;
16673;SDS011;8450;52.654;10.326;2024-02-21T03:41:05;32.60;;;19.33;;
16673;SDS011;8450;52.654;10.326;2024-02-21T03:43:30;31.47;;;20.43;;
16673;SDS011;8450;52.654;10.326;2024-02-21T03:45:56;34.13;;;20.13;;
16673;SDS011;8450;52.654;10.326;2024-02-21T03:48:22;36.20;;;20.37;;
16673;SDS011;8450;52.654;10.326;2024-02-21T03:50:47;30.27;;;18.47;;
16673;SDS011;8450;52.654;10.326;2024-02-21T03:53:13;30.83;;;19.50;;
16673;SDS011;8450;52.654;10.326;2024-02-21T03:55:38;32.50;;;18.70;;
16673;SDS011;8450;52.654;10.326;2024-02-21T03:58:04;30.90;;;19.07;;
16673;SDS011;8450;52.654;10.326;2024-02-21T04:00:29;34.30;;;18.73;;
16673;SDS011;8450;52.654;10.326;2024-02-21T04:02:55;35.60;;;19.30;;
16673;SDS011;8450;52.654;10.326;2024-02-21T04:05:21;28.67;;;17.27;;
16673;SDS011;8450;52.654;10.326;2024-02-21T04:07:46;34.63;;;18.87;;
16673;SDS011;8450;52.654;10.326;2024-02-21T04:10:12;28.17;;;17.53;;
16673;SDS011;8450;52.654;10.326;2024-02-21T04:12:37;29.27;;;17.40;;
16673;SDS011;8450;52.654;10.326;2024-02-21T04:15:03;23.20;;;16.40;;
16673;SDS011;8450;52.654;10.326;2024-02-21T04:17:29;30.90;;;18.90;;
16673;SDS011;8450;52.654;10.326;2024-02-21T04:20:01;30.10;;;17.40;;
16673;SDS011;8450;52.654;10.326;2024-02-21T04:22:30;26.20;;;18.83;;
16673;SDS011;8450;52.654;10.326;2024-02-21T04:24:57;21.33;;;12.53;;
16673;SDS011;8450;52.654;10.326;2024-02-21T04:27:22;29.03;;;18.10;;
16673;SDS011;8450;52.654;10.326;2024-02-21T04:29:48;30.60;;;18.67;;
16673;SDS011;8450;52.654;10.326;2024-02-21T04:32:13;30.37;;;17.77;;
16673;SDS011;8450;52.654;10.326;2024-02-21T04:34:40;28.77;;;14.97;;
16673;SDS011;8450;52.654;10.326;2024-02-21T04:37:06;31.53;;;18.40;;
16673;SDS011;8450;52.654;10.326;2024-02-21T04:39:32;28.37;;;17.77;;
16673;SDS011;8450;52.654;10.326;2024-02-21T04:41:57;24.43;;;17.50;;
16673;SDS011;8450;52.654;10.326;2024-02-21T04:44:23;31.83;;;18.10;;
16673;SDS011;8450;52.654;10.326;2024-02-21T04:46:48;27.10;;;17.40;;
16673;SDS011;8450;52.654;10.326;2024-02-21T04:49:14;19.77;;;12.97;;
16673;SDS011;8450;52.654;10.326;2024-02-21T04:51:40;20.00;;;11.07;;
16673;SDS011;8450;52.654;10.326;2024-02-21T04:54:06;32.23;;;17.80;;
16673;SDS011;8450;52.654;10.326;2024-02-21T04:56:32;27.03;;;19.37;;
16673;SDS011;8450;52.654;10.326;2024-02-21T04:58:57;28.90;;;19.17;;
16673;SDS011;8450;52.654;10.326;2024-02-21T05:01:23;29.50;;;18.23;;
16673;SDS011;8450;52.654;10.326;2024-02-21T05:03:48;31.80;;;22.63;;
16673;SDS011;8450;52.654;10.326;2024-02-21T05:06:14;24.83;;;17.13;;
16673;SDS011;8450;52.654;10.326;2024-02-21T05:08:40;31.50;;;18.33;;
16673;SDS011;8450;52.654;10.326;2024-02-21T05:11:05;29.93;;;18.57;;
16673;SDS011;8450;52.654;10.326;2024-02-21T05:13:31;29.07;;;19.03;;
16673;SDS011;8450;52.654;10.326;2024-02-21T05:15:56;34.90;;;22.23;;
16673;SDS011;8450;52.654;10.326;2024-02-21T05:18:22;32.13;;;19.13;;
16673;SDS011;8450;52.654;10.326;2024-02-21T05:20:47;29.07;;;19.10;;
16673;SDS011;8450;52.654;10.326;2024-02-21T05:23:13;23.87;;;15.67;;
16673;SDS011;8450;52.654;10.326;2024-02-21T05:25:38;28.30;;;17.13;;
16673;SDS011;8450;52.654;10.326;2024-02-21T05:28:04;36.00;;;18.10;;
16673;SDS011;8450;52.654;10.326;2024-02-21T05:30:31;31.33;;;17.00;;
16673;SDS011;8450;52.654;10.326;2024-02-21T05:32:57;26.93;;;15.87;;
16673;SDS011;8450;52.654;10.326;2024-02-21T05:35:26;32.30;;;19.97;;
16673;SDS011;8450;52.654;10.326;2024-02-21T05:37:52;29.07;;;15.80;;
16673;SDS011;8450;52.654;10.326;2024-02-21T05:40:18;33.13;;;22.30;;
16673;SDS011;8450;52.654;10.326;2024-02-21T05:42:43;35.93;;;22.30;;
16673;SDS011;8450;52.654;10.326;2024-02-21T05:45:09;38.90;;;20.90;;
16673;SDS011;8450;52.654;10.326;2024-02-21T05:47:35;38.33;;;21.03;;
16673;SDS011;8450;52.654;10.326;2024-02-21T05:50:00;32.43;;;19.10;;
16673;SDS011;8450;52.654;10.326;2024-02-21T05:52:26;35.10;;;20.33;;
16673;SDS011;8450;52.654;10.326;2024-02-21T05:54:51;32.93;;;20.97;;
16673;SDS011;8450;52.654;10.326;2024-02-21T05:57:17;30.23;;;19.00;;
16673;SDS011;8450;52.654;10.326;2024-02-21T05:59:43;44.53;;;20.80;;
16673;SDS011;8450;52.654;10.326;2024-02-21T06:02:09;40.40;;;23.13;;
16673;SDS011;8450;52.654;10.326;2024-02-21T06:04:34;37.80;;;21.70;;
16673;SDS011;8450;52.654;10.326;2024-02-21T06:07:00;41.23;;;22.50;;
16673;SDS011;8450;52.654;10.326;2024-02-21T06:09:27;41.23;;;25.30;;
16673;SDS011;8450;52.654;10.326;2024-02-21T06:11:52;41.07;;;23.73;;
16673;SDS011;8450;52.654;10.326;2024-02-21T06:14:19;45.17;;;24.90;;
16673;SDS011;8450;52.654;10.326;2024-02-21T06:16:45;45.33;;;26.40;;
16673;SDS011;8450;52.654;10.326;2024-02-21T06:19:10;46.00;;;25.93;;
16673;SDS011;8450;52.654;10.326;2024-02-21T06:21:36;35.87;;;21.83;;
16673;SDS011;8450;52.654;10.326;2024-02-21T06:24:02;44.27;;;23.90;;
16673;SDS011;8450;52.654;10.326;2024-02-21T06:26:28;32.50;;;21.80;;
16673;SDS011;8450;52.654;10.326;2024-02-21T06:28:53;38.50;;;22.73;;
16673;SDS011;8450;52.654;10.326;2024-02-21T06:31:19;37.87;;;24.03;;
16673;SDS011;8450;52.654;10.326;2024-02-21T06:33:44;33.07;;;22.13;;
16673;SDS011;8450;52.654;10.326;2024-02-21T06:36:10;45.13;;;23.60;;
16673;SDS011;8450;52.654;10.326;2024-02-21T06:38:35;39.17;;;25.00;;
16673;SDS011;8450;52.654;10.326;2024-02-21T06:41:01;44.13;;;23.93;;
16673;SDS011;8450;52.654;10.326;2024-02-21T06:43:27;40.43;;;24.60;;
16673;SDS011;8450;52.654;10.326;2024-02-21T06:45:53;45.43;;;26.10;;
16673;SDS011;8450;52.654;10.326;2024-02-21T06:48:20;42.90;;;24.37;;
16673;SDS011;8450;52.654;10.326;2024-02-21T06:50:45;42.87;;;25.60;;
16673;SDS011;8450;52.654;10.326;2024-02-21T06:53:11;39.57;;;21.13;;
16673;SDS011;8450;52.654;10.326;2024-02-21T06:55:37;44.13;;;26.00;;
16673;SDS011;8450;52.654;10.326;2024-02-21T06:58:03;32.50;;;19.03;;
16673;SDS011;8450;52.654;10.326;2024-02-21T07:00:29;48.80;;;29.83;;
16673;SDS011;8450;52.654;10.326;2024-02-21T07:02:54;49.50;;;27.60;;
16673;SDS011;8450;52.654;10.326;2024-02-21T07:05:20;42.80;;;23.53;;
16673;SDS011;8450;52.654;10.326;2024-02-21T07:07:46;48.77;;;27.97;;
16673;SDS011;8450;52.654;10.326;2024-02-21T07:10:11;51.07;;;28.40;;
16673;SDS011;8450;52.654;10.326;2024-02-21T07:12:37;36.57;;;23.70;;
16673;SDS011;8450;52.654;10.326;2024-02-21T07:15:08;41.00;;;21.87;;
16673;SDS011;8450;52.654;10.326;2024-02-21T07:17:34;41.73;;;24.47;;
16673;SDS011;8450;52.654;10.326;2024-02-21T07:19:59;43.90;;;24.33;;
16673;SDS011;8450;52.654;10.326;2024-02-21T07:22:26;42.17;;;23.50;;
16673;SDS011;8450;52.654;10.326;2024-02-21T07:24:51;47.37;;;27.30;;
16673;SDS011;8450;52.654;10.326;2024-02-21T07:27:17;38.87;;;25.27;;
16673;SDS011;8450;52.654;10.326;2024-02-21T07:29:43;46.27;;;25.87;;
16673;SDS011;8450;52.654;10.326;2024-02-21T07:32:12;48.67;;;29.63;;
16673;SDS011;8450;52.654;10.326;2024-02-21T07:34:38;41.43;;;24.33;;
16673;SDS011;8450;52.654;10.326;2024-02-21T07:37:03;44.80;;;26.30;;
16673;SDS011;8450;52.654;10.326;2024-02-21T07:39:29;38.73;;;24.53;;
16673;SDS011;8450;52.654;10.326;2024-02-21T07:41:54;43.13;;;26.23;;
16673;SDS011;8450;52.654;10.326;2024-02-21T07:44:20;44.97;;;26.57;;
16673;SDS011;8450;52.654;10.326;2024-02-21T07:46:45;45.60;;;25.17;;
16673;SDS011;8450;52.654;10.326;2024-02-21T07:49:11;39.93;;;26.33;;
16673;SDS011;8450;52.654;10.326;2024-02-21T07:51:36;40.17;;;25.57;;
16673;SDS011;8450;52.654;10.326;2024-02-21T07:54:02;41.83;;;26.13;;
16673;SDS011;8450;52.654;10.326;2024-02-21T07:56:29;43.23;;;23.73;;
16673;SDS011;8450;52.654;10.326;2024-02-21T07:58:54;36.83;;;22.00;;
16673;SDS011;8450;52.654;10.326;2024-02-21T08:01:20;42.07;;;23.77;;
16673;SDS011;8450;52.654;10.326;2024-02-21T08:03:46;37.00;;;24.20;;
16673;SDS011;8450;52.654;10.326;2024-02-21T08:06:12;38.43;;;22.80;;
16673;SDS011;8450;52.654;10.326;2024-02-21T08:08:39;37.43;;;22.90;;
16673;SDS011;8450;52.654;10.326;2024-02-21T08:11:04;33.23;;;21.03;;
16673;SDS011;8450;52.654;10.326;2024-02-21T08:13:30;37.30;;;22.67;;
16673;SDS011;8450;52.654;10.326;2024-02-21T08:15:56;37.30;;;22.77;;
16673;SDS011;8450;52.654;10.326;2024-02-21T08:18:22;38.37;;;21.47;;
16673;SDS011;8450;52.654;10.326;2024-02-21T08:20:48;39.83;;;24.30;;
16673;SDS011;8450;52.654;10.326;2024-02-21T08:23:15;37.00;;;20.83;;
16673;SDS011;8450;52.654;10.326;2024-02-21T08:25:41;31.97;;;19.27;;
16673;SDS011;8450;52.654;10.326;2024-02-21T08:28:07;34.27;;;21.03;;
16673;SDS011;8450;52.654;10.326;2024-02-21T08:30:33;33.73;;;22.97;;
16673;SDS011;8450;52.654;10.326;2024-02-21T08:32:59;33.27;;;22.10;;
16673;SDS011;8450;52.654;10.326;2024-02-21T08:35:24;38.60;;;23.50;;
16673;SDS011;8450;52.654;10.326;2024-02-21T08:37:50;35.33;;;21.47;;
16673;SDS011;8450;52.654;10.326;2024-02-21T08:40:16;30.97;;;19.17;;
16673;SDS011;8450;52.654;10.326;2024-02-21T08:42:46;32.27;;;21.17;;
16673;SDS011;8450;52.654;10.326;2024-02-21T08:45:12;29.70;;;21.77;;
16673;SDS011;8450;52.654;10.326;2024-02-21T08:47:41;37.50;;;22.67;;
16673;SDS011;8450;52.654;10.326;2024-02-21T08:50:07;38.40;;;21.60;;
16673;SDS011;8450;52.654;10.326;2024-02-21T08:52:34;31.27;;;21.50;;
16673;SDS011;8450;52.654;10.326;2024-02-21T08:55:00;37.13;;;23.43;;
16673;SDS011;8450;52.654;10.326;2024-02-21T08:57:26;31.57;;;20.50;;
16673;SDS011;8450;52.654;10.326;2024-02-21T08:59:52;32.90;;;20.93;;
16673;SDS011;8450;52.654;10.326;2024-02-21T09:02:18;32.57;;;21.80;;
16673;SDS011;8450;52.654;10.326;2024-02-21T09:04:43;31.87;;;22.13;;
16673;SDS011;8450;52.654;10.326;2024-02-21T09:07:09;39.10;;;20.97;;
16673;SDS011;8450;52.654;10.326;2024-02-21T09:09:35;36.10;;;21.13;;
16673;SDS011;8450;52.654;10.326;2024-02-21T09:12:03;30.43;;;20.17;;
16673;SDS011;8450;52.654;10.326;2024-02-21T09:14:32;31.07;;;20.37;;
16673;SDS011;8450;52.654;10.326;2024-02-21T09:16:58;30.53;;;18.80;;
16673;SDS011;8450;52.654;10.326;2024-02-21T09:19:24;29.87;;;19.00;;
16673;SDS011;8450;52.654;10.326;2024-02-21T09:21:49;31.27;;;21.30;;
16673;SDS011;8450;52.654;10.326;2024-02-21T09:24:15;26.37;;;16.57;;
16673;SDS011;8450;52.654;10.326;2024-02-21T09:26:40;28.40;;;19.60;;
16673;SDS011;8450;52.654;10.326;2024-02-21T09:29:06;32.50;;;20.20;;
16673;SDS011;8450;52.654;10.326;2024-02-21T09:31:31;29.00;;;19.30;;
16673;SDS011;8450;52.654;10.326;2024-02-21T09:33:57;34.17;;;17.70;;
16673;SDS011;8450;52.654;10.326;2024-02-21T09:36:22;31.00;;;19.97;;
16673;SDS011;8450;52.654;10.326;2024-02-21T09:38:49;28.13;;;18.60;;
16673;SDS011;8450;52.654;10.326;2024-02-21T09:41:15;27.00;;;18.60;;
16673;SDS011;8450;52.654;10.326;2024-02-21T09:43:42;23.87;;;17.87;;
16673;SDS011;8450;52.654;10.326;2024-02-21T09:46:13;27.23;;;17.27;;
16673;SDS011;8450;52.654;10.326;2024-02-21T09:51:54;25.93;;;17.43;;
16673;SDS011;8450;52.654;10.326;2024-02-21T09:54:21;29.47;;;16.90;;
16673;SDS011;8450;52.654;10.326;2024-02-21T09:56:47;27.23;;;17.47;;
16673;SDS011;8450;52.654;10.326;2024-02-21T09:59:16;25.23;;;17.63;;
16673;SDS011;8450;52.654;10.326;2024-02-21T10:01:42;24.23;;;14.77;;
16673;SDS011;8450;52.654;10.326;2024-02-21T10:04:09;37.40;;;18.43;;
16673;SDS011;8450;52.654;10.326;2024-02-21T10:06:35;25.07;;;17.33;;
16673;SDS011;8450;52.654;10.326;2024-02-21T10:09:02;25.30;;;16.63;;
16673;SDS011;8450;52.654;10.326;2024-02-21T10:11:28;26.93;;;17.27;;
16673;SDS011;8450;52.654;10.326;2024-02-21T10:14:12;24.47;;;16.63;;
16673;SDS011;8450;52.654;10.326;2024-02-21T10:16:37;24.27;;;12.77;;
16673;SDS011;8450;52.654;10.326;2024-02-21T10:19:03;25.63;;;17.80;;
16673;SDS011;8450;52.654;10.326;2024-02-21T10:21:28;24.57;;;15.63;;
16673;SDS011;8450;52.654;10.326;2024-02-21T10:23:54;19.40;;;12.57;;
16673;SDS011;8450;52.654;10.326;2024-02-21T10:26:20;22.00;;;15.00;;
16673;SDS011;8450;52.654;10.326;2024-02-21T10:28:49;25.30;;;14.67;;
16673;SDS011;8450;52.654;10.326;2024-02-21T10:34:01;20.37;;;12.60;;
16673;SDS011;8450;52.654;10.326;2024-02-21T10:36:30;21.03;;;10.63;;
16673;SDS011;8450;52.654;10.326;2024-02-21T10:38:56;20.47;;;12.93;;
16673;SDS011;8450;52.654;10.326;2024-02-21T10:41:22;13.90;;;9.47;;
16673;SDS011;8450;52.654;10.326;2024-02-21T10:43:52;17.43;;;11.13;;
16673;SDS011;8450;52.654;10.326;2024-02-21T10:46:20;13.40;;;9.30;;
16673;SDS011;8450;52.654;10.326;2024-02-21T10:48:46;9.87;;;6.17;;
16673;SDS011;8450;52.654;10.326;2024-02-21T10:51:16;17.30;;;10.57;;
16673;SDS011;8450;52.654;10.326;2024-02-21T10:56:38;10.57;;;7.30;;
16673;SDS011;8450;52.654;10.326;2024-02-21T10:59:06;15.37;;;7.90;;
16673;SDS011;8450;52.654;10.326;2024-02-21T11:01:32;13.50;;;9.83;;
16673;SDS011;8450;52.654;10.326;2024-02-21T11:04:04;18.23;;;9.07;;
16673;SDS011;8450;52.654;10.326;2024-02-21T11:06:32;15.27;;;8.67;;
16673;SDS011;8450;52.654;10.326;2024-02-21T11:09:17;14.60;;;8.50;;
16673;SDS011;8450;52.654;10.326;2024-02-21T11:11:43;9.57;;;6.67;;
16673;SDS011;8450;52.654;10.326;2024-02-21T11:14:19;14.00;;;8.13;;
16673;SDS011;8450;52.654;10.326;2024-02-21T11:16:45;12.23;;;7.43;;
16673;SDS011;8450;52.654;10.326;2024-02-21T11:19:29;12.03;;;7.57;;
16673;SDS011;8450;52.654;10.326;2024-02-21T11:21:56;12.00;;;6.73;;
16673;SDS011;8450;52.654;10.326;2024-02-21T11:24:26;11.63;;;6.10;;
16673;SDS011;8450;52.654;10.326;2024-02-21T11:26:53;10.70;;;6.13;;
16673;SDS011;8450;52.654;10.326;2024-02-21T11:29:22;9.83;;;5.53;;
16673;SDS011;8450;52.654;10.326;2024-02-21T11:31:49;10.03;;;4.63;;
16673;SDS011;8450;52.654;10.326;2024-02-21T11:34:19;6.87;;;5.27;;
16673;SDS011;8450;52.654;10.326;2024-02-21T11:36:48;10.00;;;5.90;;
16673;SDS011;8450;52.654;10.326;2024-02-21T11:39:19;10.40;;;6.50;;
16673;SDS011;8450;52.654;10.326;2024-02-21T11:41:47;8.67;;;5.87;;
16673;SDS011;8450;52.654;10.326;2024-02-21T11:44:13;10.20;;;5.73;;
16673;SDS011;8450;52.654;10.326;2024-02-21T11:46:38;9.83;;;6.00;;
16673;SDS011;8450;52.654;10.326;2024-02-21T11:49:06;10.47;;;5.97;;
16673;SDS011;8450;52.654;10.326;2024-02-21T11:51:31;8.60;;;5.97;;
16673;SDS011;8450;52.654;10.326;2024-02-21T11:53:57;7.27;;;5.23;;
16673;SDS011;8450;52.654;10.326;2024-02-21T11:56:22;8.07;;;4.70;;
16673;SDS011;8450;52.654;10.326;2024-02-21T11:58:48;7.47;;;4.97;;
16673;SDS011;8450;52.654;10.326;2024-02-21T12:01:14;5.80;;;4.90;;
16673;SDS011;8450;52.654;10.326;2024-02-21T12:03:40;10.37;;;4.70;;
16673;SDS011;8450;52.654;10.326;2024-02-21T12:06:07;11.50;;;6.83;;
16673;SDS011;8450;52.654;10.326;2024-02-21T12:08:42;6.43;;;4.23;;
16673;SDS011;8450;52.654;10.326;2024-02-21T12:11:22;11.50;;;5.10;;
16673;SDS011;8450;52.654;10.326;2024-02-21T12:13:58;5.30;;;3.90;;
16673;SDS011;8450;52.654;10.326;2024-02-21T12:16:26;9.37;;;4.73;;
16673;SDS011;8450;52.654;10.326;2024-02-21T12:18:53;5.37;;;4.30;;
16673;SDS011;8450;52.654;10.326;2024-02-21T12:21:19;9.43;;;5.03;;
16673;SDS011;8450;52.654;10.326;2024-02-21T12:23:48;8.37;;;4.37;;
16673;SDS011;8450;52.654;10.326;2024-02-21T12:26:13;7.30;;;3.60;;
16673;SDS011;8450;52.654;10.326;2024-02-21T12:28:39;8.60;;;4.43;;
16673;SDS011;8450;52.654;10.326;2024-02-21T12:31:04;6.23;;;4.33;;
16673;SDS011;8450;52.654;10.326;2024-02-21T12:33:30;6.93;;;3.73;;
16673;SDS011;8450;52.654;10.326;2024-02-21T12:35:56;8.37;;;3.77;;
16673;SDS011;8450;52.654;10.326;2024-02-21T12:38:22;8.63;;;4.33;;
16673;SDS011;8450;52.654;10.326;2024-02-21T12:40:47;7.33;;;3.73;;
16673;SDS011;8450;52.654;10.326;2024-02-21T12:43:13;7.93;;;4.47;;
16673;SDS011;8450;52.654;10.326;2024-02-21T12:45:38;5.83;;;3.33;;
16673;SDS011;8450;52.654;10.326;2024-02-21T12:48:04;7.93;;;3.70;;
16673;SDS011;8450;52.654;10.326;2024-02-21T12:50:30;8.70;;;3.70;;
16673;SDS011;8450;52.654;10.326;2024-02-21T12:52:56;8.97;;;4.10;;
16673;SDS011;8450;52.654;10.326;2024-02-21T12:55:23;10.93;;;3.87;;
16673;SDS011;8450;52.654;10.326;2024-02-21T12:57:49;4.63;;;3.07;;
16673;SDS011;8450;52.654;10.326;2024-02-21T13:00:14;6.83;;;3.20;;
16673;SDS011;8450;52.654;10.326;2024-02-21T13:02:40;5.63;;;3.53;;
16673;SDS011;8450;52.654;10.326;2024-02-21T13:05:06;4.87;;;3.57;;
16673;SDS011;8450;52.654;10.326;2024-02-21T13:07:32;7.23;;;3.80;;
16673;SDS011;8450;52.654;10.326;2024-02-21T13:09:58;5.57;;;3.23;;
16673;SDS011;8450;52.654;10.326;2024-02-21T13:12:24;8.47;;;3.93;;
16673;SDS011;8450;52.654;10.326;2024-02-21T13:14:51;5.17;;;3.20;;
16673;SDS011;8450;52.654;10.326;2024-02-21T13:17:17;4.47;;;3.10;;
16673;SDS011;8450;52.654;10.326;2024-02-21T13:19:42;6.50;;;2.40;;
16673;SDS011;8450;52.654;10.326;2024-02-21T13:22:08;15.47;;;3.40;;
16673;SDS011;8450;52.654;10.326;2024-02-21T13:24:34;7.10;;;3.43;;
16673;SDS011;8450;52.654;10.326;2024-02-21T13:26:59;4.00;;;3.10;;
16673;SDS011;8450;52.654;10.326;2024-02-21T13:29:25;6.67;;;3.47;;
16673;SDS011;8450;52.654;10.326;2024-02-21T13:31:50;6.47;;;3.37;;
16673;SDS011;8450;52.654;10.326;2024-02-21T13:34:16;6.23;;;3.07;;
16673;SDS011;8450;52.654;10.326;2024-02-21T13:36:42;7.10;;;3.40;;
16673;SDS011;8450;52.654;10.326;2024-02-21T13:39:08;6.90;;;3.13;;
16673;SDS011;8450;52.654;10.326;2024-02-21T13:41:33;8.00;;;3.93;;
16673;SDS011;8450;52.654;10.326;2024-02-21T13:43:59;8.60;;;3.63;;
16673;SDS011;8450;52.654;10.326;2024-02-21T13:46:25;4.57;;;2.97;;
16673;SDS011;8450;52.654;10.326;2024-02-21T13:48:52;5.77;;;3.50;;
16673;SDS011;8450;52.654;10.326;2024-02-21T13:51:26;6.90;;;3.37;;
16673;SDS011;8450;52.654;10.326;2024-02-21T13:53:51;6.90;;;3.73;;
16673;SDS011;8450;52.654;10.326;2024-02-21T13:56:17;6.63;;;3.57;;
16673;SDS011;8450;52.654;10.326;2024-02-21T13:58:43;6.77;;;4.03;;
16673;SDS011;8450;52.654;10.326;2024-02-21T14:01:09;7.47;;;3.50;;
16673;SDS011;8450;52.654;10.326;2024-02-21T14:03:34;4.67;;;3.37;;
16673;SDS011;8450;52.654;10.326;2024-02-21T14:06:00;5.80;;;3.70;;
16673;SDS011;8450;52.654;10.326;2024-02-21T14:08:25;6.97;;;3.80;;
16673;SDS011;8450;52.654;10.326;2024-02-21T14:10:51;7.13;;;3.57;;
16673;SDS011;8450;52.654;10.326;2024-02-21T14:13:17;7.67;;;4.10;;
16673;SDS011;8450;52.654;10.326;2024-02-21T14:15:43;6.80;;;4.33;;
16673;SDS011;8450;52.654;10.326;2024-02-21T14:18:11;7.10;;;4.20;;
16673;SDS011;8450;52.654;10.326;2024-02-21T14:20:38;4.80;;;3.70;;
16673;SDS011;8450;52.654;10.326;2024-02-21T14:23:04;5.40;;;3.10;;
16673;SDS011;8450;52.654;10.326;2024-02-21T14:25:30;5.17;;;3.80;;
16673;SDS011;8450;52.654;10.326;2024-02-21T14:27:55;4.37;;;3.40;;
16673;SDS011;8450;52.654;10.326;2024-02-21T14:30:21;6.03;;;3.90;;
16673;SDS011;8450;52.654;10.326;2024-02-21T14:32:46;6.50;;;3.73;;